sensor_id;sensor_type;location;lat;lon;timestamp;pressure;altitude;pressure_sealevel;temperature;humidity
3524;BME280;1776;53.330;11.498;2023-04-07T00:02:11;24986.00;;;-147.39;42.15
3524;BME280;1776;53.330;11.498;2023-04-07T00:04:37;24967.72;;;-147.39;42.14
3524;BME280;1776;53.330;11.498;2023-04-07T00:07:02;24943.31;;;-147.39;42.35
3524;BME280;1776;53.330;11.498;2023-04-07T00:09:27;24949.41;;;-147.39;42.36
3524;BME280;1776;53.330;11.498;2023-04-07T00:11:53;24947.38;;;-147.39;42.07
3524;BME280;1776;53.330;11.498;2023-04-07T00:14:18;24957.53;;;-147.39;42.47
3524;BME280;1776;53.330;11.498;2023-04-07T00:16:43;24939.25;;;-147.39;42.34
3524;BME280;1776;53.330;11.498;2023-04-07T00:19:08;24949.41;;;-147.39;42.24
3524;BME280;1776;53.330;11.498;2023-04-07T00:21:34;24945.34;;;-147.39;42.28
3524;BME280;1776;53.330;11.498;2023-04-07T00:23:59;24955.50;;;-147.39;42.59
3524;BME280;1776;53.330;11.498;2023-04-07T00:26:24;24935.16;;;-147.39;42.65
3524;BME280;1776;53.330;11.498;2023-04-07T00:28:55;24945.34;;;-147.39;42.75
3524;BME280;1776;53.330;11.498;2023-04-07T00:31:21;24918.91;;;-147.39;42.41
3524;BME280;1776;53.330;11.498;2023-04-07T00:33:46;24916.88;;;-147.39;42.75
3524;BME280;1776;53.330;11.498;2023-04-07T00:36:13;24951.44;;;-147.39;43.05
3524;BME280;1776;53.330;11.498;2023-04-07T00:38:38;24937.19;;;-147.39;42.91
3524;BME280;1776;53.330;11.498;2023-04-07T00:41:03;24947.38;;;-147.39;42.78
3524;BME280;1776;53.330;11.498;2023-04-07T00:43:29;24933.13;;;-147.39;43.00
3524;BME280;1776;53.330;11.498;2023-04-07T00:45:54;24922.97;;;-147.39;43.09
3524;BME280;1776;53.330;11.498;2023-04-07T00:48:20;24906.69;;;-147.39;42.99
3524;BME280;1776;53.330;11.498;2023-04-07T00:50:46;24892.47;;;-147.39;42.78
3524;BME280;1776;53.330;11.498;2023-04-07T00:53:11;24953.47;;;-147.39;43.18
3524;BME280;1776;53.330;11.498;2023-04-07T00:55:37;24953.47;;;-147.39;42.88
3524;BME280;1776;53.330;11.498;2023-04-07T00:58:02;24941.28;;;-147.39;42.87
3524;BME280;1776;53.330;11.498;2023-04-07T01:00:30;24861.97;;;-147.39;42.86
3524;BME280;1776;53.330;11.498;2023-04-07T01:02:59;24878.22;;;-147.39;43.22
3524;BME280;1776;53.330;11.498;2023-04-07T01:05:53;24845.69;;;-147.39;43.17
3524;BME280;1776;53.330;11.498;2023-04-07T01:08:24;24853.81;;;-147.39;43.18
3524;BME280;1776;53.330;11.498;2023-04-07T01:10:59;24870.09;;;-147.39;43.07
3524;BME280;1776;53.330;11.498;2023-04-07T01:13:31;24685.03;;;-147.39;42.86
3524;BME280;1776;53.330;11.498;2023-04-07T01:16:04;24894.50;;;-147.39;43.28
3524;BME280;1776;53.330;11.498;2023-04-07T01:18:34;24929.06;;;-147.39;43.00
3524;BME280;1776;53.330;11.498;2023-04-07T01:21:10;24876.19;;;-147.39;43.06
3524;BME280;1776;53.330;11.498;2023-04-07T01:26:27;24855.84;;;-147.39;43.43
3524;BME280;1776;53.330;11.498;2023-04-07T01:29:03;24855.84;;;-147.39;43.40
3524;BME280;1776;53.330;11.498;2023-04-07T01:31:33;24876.19;;;-147.39;43.71
3524;BME280;1776;53.330;11.498;2023-04-07T01:33:59;24845.69;;;-147.39;43.99
3524;BME280;1776;53.330;11.498;2023-04-07T01:36:26;24855.84;;;-147.39;44.21
3524;BME280;1776;53.330;11.498;2023-04-07T01:38:57;24821.28;;;-147.39;43.90
3524;BME280;1776;53.330;11.498;2023-04-07T01:41:23;24813.16;;;-147.39;43.99
3524;BME280;1776;53.330;11.498;2023-04-07T01:43:50;24839.59;;;-147.39;44.12
3524;BME280;1776;53.330;11.498;2023-04-07T01:46:16;24825.34;;;-147.39;44.12
3524;BME280;1776;53.330;11.498;2023-04-07T01:48:42;24813.16;;;-147.39;44.37
3524;BME280;1776;53.330;11.498;2023-04-07T01:51:07;24825.34;;;-147.39;44.51
3524;BME280;1776;53.330;11.498;2023-04-07T01:53:36;24780.63;;;-147.39;44.44
3524;BME280;1776;53.330;11.498;2023-04-07T01:56:03;24829.41;;;-147.39;44.60
3524;BME280;1776;53.330;11.498;2023-04-07T01:58:28;24792.81;;;-147.39;44.46
3524;BME280;1776;53.330;11.498;2023-04-07T02:00:53;24864.00;;;-147.39;44.61
3524;BME280;1776;53.330;11.498;2023-04-07T02:03:22;24774.50;;;-147.39;44.79
3524;BME280;1776;53.330;11.498;2023-04-07T02:05:49;24819.25;;;-147.39;44.83
3524;BME280;1776;53.330;11.498;2023-04-07T02:08:17;24811.13;;;-147.39;44.64
3524;BME280;1776;53.330;11.498;2023-04-07T02:10:46;24774.50;;;-147.39;44.62
3524;BME280;1776;53.330;11.498;2023-04-07T02:13:15;24800.94;;;-147.39;44.56
3524;BME280;1776;53.330;11.498;2023-04-07T02:15:42;24796.88;;;-147.39;44.61
3524;BME280;1776;53.330;11.498;2023-04-07T02:18:09;24766.38;;;-147.39;44.41
3524;BME280;1776;53.330;11.498;2023-04-07T02:20:37;24760.28;;;-147.39;44.81
3524;BME280;1776;53.330;11.498;2023-04-07T02:23:06;24768.41;;;-147.39;44.48
3524;BME280;1776;53.330;11.498;2023-04-07T02:25:31;24754.19;;;-147.39;44.26
3524;BME280;1776;53.330;11.498;2023-04-07T02:27:59;24764.34;;;-147.39;44.54
3524;BME280;1776;53.330;11.498;2023-04-07T02:30:27;24786.72;;;-147.39;44.72
3524;BME280;1776;53.330;11.498;2023-04-07T02:32:53;24760.28;;;-147.39;44.68
3524;BME280;1776;53.330;11.498;2023-04-07T02:35:18;24815.19;;;-147.39;44.96
3524;BME280;1776;53.330;11.498;2023-04-07T02:37:44;24750.09;;;-147.39;45.12
3524;BME280;1776;53.330;11.498;2023-04-07T02:40:10;24819.25;;;-147.39;44.96
3524;BME280;1776;53.330;11.498;2023-04-07T02:42:36;24756.22;;;-147.39;45.31
3524;BME280;1776;53.330;11.498;2023-04-07T02:45:03;24744.00;;;-147.39;45.12
3524;BME280;1776;53.330;11.498;2023-04-07T02:47:28;24739.94;;;-147.39;45.22
3524;BME280;1776;53.330;11.498;2023-04-07T02:49:53;24721.63;;;-147.39;45.33
3524;BME280;1776;53.330;11.498;2023-04-07T02:52:19;24713.50;;;-147.39;45.47
3524;BME280;1776;53.330;11.498;2023-04-07T02:54:44;24762.31;;;-147.39;45.60
3524;BME280;1776;53.330;11.498;2023-04-07T02:57:09;24758.25;;;-147.39;45.66
3524;BME280;1776;53.330;11.498;2023-04-07T02:59:34;24711.47;;;-147.39;45.70
3524;BME280;1776;53.330;11.498;2023-04-07T03:02:00;24725.69;;;-147.39;45.79
3524;BME280;1776;53.330;11.498;2023-04-07T03:04:25;24691.13;;;-147.39;45.72
3524;BME280;1776;53.330;11.498;2023-04-07T03:06:51;24699.28;;;-147.39;45.93
3524;BME280;1776;53.330;11.498;2023-04-07T03:09:16;24729.78;;;-147.39;45.54
3524;BME280;1776;53.330;11.498;2023-04-07T03:11:41;24711.47;;;-147.39;46.14
3524;BME280;1776;53.330;11.498;2023-04-07T03:14:07;24713.50;;;-147.39;45.95
3524;BME280;1776;53.330;11.498;2023-04-07T03:16:32;24670.78;;;-147.39;46.27
3524;BME280;1776;53.330;11.498;2023-04-07T03:18:57;24646.41;;;-147.39;46.15
3524;BME280;1776;53.330;11.498;2023-04-07T03:21:23;24652.50;;;-147.39;46.47
3524;BME280;1776;53.330;11.498;2023-04-07T03:23:48;24630.13;;;-147.39;46.19
3524;BME280;1776;53.330;11.498;2023-04-07T03:26:13;24680.97;;;-147.39;46.66
3524;BME280;1776;53.330;11.498;2023-04-07T03:28:39;24630.13;;;-147.39;46.75
3524;BME280;1776;53.330;11.498;2023-04-07T03:31:04;24660.63;;;-147.39;46.94
3524;BME280;1776;53.330;11.498;2023-04-07T03:33:30;24683.00;;;-147.39;47.14
3524;BME280;1776;53.330;11.498;2023-04-07T03:35:55;24638.25;;;-147.39;46.94
3524;BME280;1776;53.330;11.498;2023-04-07T03:38:20;24628.09;;;-147.39;47.09
3524;BME280;1776;53.330;11.498;2023-04-07T03:40:46;24652.50;;;-147.39;47.45
3524;BME280;1776;53.330;11.498;2023-04-07T03:43:11;24626.06;;;-147.39;47.31
3524;BME280;1776;53.330;11.498;2023-04-07T03:45:40;24601.66;;;-147.39;47.74
3524;BME280;1776;53.330;11.498;2023-04-07T03:48:05;24605.72;;;-147.39;47.86
3524;BME280;1776;53.330;11.498;2023-04-07T03:50:34;24524.38;;;-147.39;48.06
3524;BME280;1776;53.330;11.498;2023-04-07T03:52:59;24569.13;;;-147.39;48.29
3524;BME280;1776;53.330;11.498;2023-04-07T03:55:25;24528.44;;;-147.39;48.30
3524;BME280;1776;53.330;11.498;2023-04-07T03:57:50;24524.38;;;-147.39;48.20
3524;BME280;1776;53.330;11.498;2023-04-07T04:00:16;24499.97;;;-147.39;48.54
3524;BME280;1776;53.330;11.498;2023-04-07T04:02:41;24512.19;;;-147.39;48.43
3524;BME280;1776;53.330;11.498;2023-04-07T04:05:06;24508.13;;;-147.39;48.31
3524;BME280;1776;53.330;11.498;2023-04-07T04:07:31;24518.28;;;-147.39;48.51
3524;BME280;1776;53.330;11.498;2023-04-07T04:09:57;24504.06;;;-147.39;48.58
3524;BME280;1776;53.330;11.498;2023-04-07T04:12:23;24483.72;;;-147.39;48.60
3524;BME280;1776;53.330;11.498;2023-04-07T04:14:48;24457.28;;;-147.39;48.34
3524;BME280;1776;53.330;11.498;2023-04-07T04:17:13;24447.13;;;-147.39;48.76
3524;BME280;1776;53.330;11.498;2023-04-07T04:19:38;24443.03;;;-147.39;48.55
3524;BME280;1776;53.330;11.498;2023-04-07T04:22:04;24463.38;;;-147.39;48.81
3524;BME280;1776;53.330;11.498;2023-04-07T04:24:29;24445.06;;;-147.39;49.05
3524;BME280;1776;53.330;11.498;2023-04-07T04:26:54;24445.06;;;-147.39;49.17
3524;BME280;1776;53.330;11.498;2023-04-07T04:29:20;24422.72;;;-147.39;49.08
3524;BME280;1776;53.330;11.498;2023-04-07T04:31:46;24447.13;;;-147.39;48.95
3524;BME280;1776;53.330;11.498;2023-04-07T04:34:11;24455.25;;;-147.39;49.49
3524;BME280;1776;53.330;11.498;2023-04-07T04:36:36;24430.84;;;-147.39;49.41
3524;BME280;1776;53.330;11.498;2023-04-07T04:39:03;24377.97;;;-147.39;49.49
3524;BME280;1776;53.330;11.498;2023-04-07T04:41:28;24414.56;;;-147.39;49.37
3524;BME280;1776;53.330;11.498;2023-04-07T04:43:53;24380.00;;;-147.39;49.41
3524;BME280;1776;53.330;11.498;2023-04-07T04:46:18;24349.50;;;-147.39;49.35
3524;BME280;1776;53.330;11.498;2023-04-07T04:48:44;24386.09;;;-147.39;49.35
3524;BME280;1776;53.330;11.498;2023-04-07T04:51:09;24390.19;;;-147.39;49.76
3524;BME280;1776;53.330;11.498;2023-04-07T04:53:34;24345.44;;;-147.39;49.40
3524;BME280;1776;53.330;11.498;2023-04-07T04:56:00;24345.44;;;-147.39;49.33
3524;BME280;1776;53.330;11.498;2023-04-07T04:58:25;24377.97;;;-147.39;49.32
3524;BME280;1776;53.330;11.498;2023-04-07T05:00:54;24369.84;;;-147.39;49.60
3524;BME280;1776;53.330;11.498;2023-04-07T05:03:23;24367.81;;;-147.39;49.15
3524;BME280;1776;53.330;11.498;2023-04-07T05:05:50;24396.28;;;-147.39;49.60
3524;BME280;1776;53.330;11.498;2023-04-07T05:08:15;24357.63;;;-147.39;49.53
3524;BME280;1776;53.330;11.498;2023-04-07T05:10:41;24349.50;;;-147.39;49.30
3524;BME280;1776;53.330;11.498;2023-04-07T05:13:06;24386.09;;;-147.39;49.32
3524;BME280;1776;53.330;11.498;2023-04-07T05:15:31;24369.84;;;-147.39;49.30
3524;BME280;1776;53.330;11.498;2023-04-07T05:17:57;24375.94;;;-147.39;49.13
3524;BME280;1776;53.330;11.498;2023-04-07T05:20:22;24345.44;;;-147.39;49.35
3524;BME280;1776;53.330;11.498;2023-04-07T05:22:47;24353.56;;;-147.39;49.56
3524;BME280;1776;53.330;11.498;2023-04-07T05:25:12;24339.34;;;-147.39;49.69
3524;BME280;1776;53.330;11.498;2023-04-07T05:27:38;24363.75;;;-147.39;49.34
3524;BME280;1776;53.330;11.498;2023-04-07T05:30:03;24388.13;;;-147.39;49.28
3524;BME280;1776;53.330;11.498;2023-04-07T05:32:29;24339.34;;;-147.39;49.56
3524;BME280;1776;53.330;11.498;2023-04-07T05:34:54;24349.50;;;-147.39;49.37
3524;BME280;1776;53.330;11.498;2023-04-07T05:37:20;24343.41;;;-147.39;49.35
3524;BME280;1776;53.330;11.498;2023-04-07T05:39:45;24386.09;;;-147.39;49.27
3524;BME280;1776;53.330;11.498;2023-04-07T05:42:11;24384.06;;;-147.39;49.35
3524;BME280;1776;53.330;11.498;2023-04-07T05:44:36;24355.59;;;-147.39;49.20
3524;BME280;1776;53.330;11.498;2023-04-07T05:47:01;24408.47;;;-147.39;49.05
3524;BME280;1776;53.330;11.498;2023-04-07T05:49:29;24432.88;;;-147.39;48.94
3524;BME280;1776;53.330;11.498;2023-04-07T05:51:55;24410.50;;;-147.39;48.76
3524;BME280;1776;53.330;11.498;2023-04-07T05:54:20;24402.38;;;-147.39;48.99
3524;BME280;1776;53.330;11.498;2023-04-07T05:56:46;24390.19;;;-147.39;48.87
3524;BME280;1776;53.330;11.498;2023-04-07T05:59:11;24398.31;;;-147.39;49.25
3524;BME280;1776;53.330;11.498;2023-04-07T06:01:36;24410.50;;;-147.39;49.35
3524;BME280;1776;53.330;11.498;2023-04-07T06:04:01;24428.81;;;-147.39;48.58
3524;BME280;1776;53.330;11.498;2023-04-07T06:06:27;24420.69;;;-147.39;49.64
3524;BME280;1776;53.330;11.498;2023-04-07T06:08:53;24402.38;;;-147.39;49.18
3524;BME280;1776;53.330;11.498;2023-04-07T06:11:18;24428.81;;;-147.39;48.74
3524;BME280;1776;53.330;11.498;2023-04-07T06:13:44;24426.78;;;-147.39;48.63
3524;BME280;1776;53.330;11.498;2023-04-07T06:16:10;24412.53;;;-147.39;48.39
3524;BME280;1776;53.330;11.498;2023-04-07T06:18:35;24434.91;;;-147.39;48.38
3524;BME280;1776;53.330;11.498;2023-04-07T06:21:00;24432.88;;;-147.39;48.10
3524;BME280;1776;53.330;11.498;2023-04-07T06:23:26;24375.94;;;-147.39;53.49
3524;BME280;1776;53.330;11.498;2023-04-07T06:25:51;24321.03;;;-147.39;55.16
3524;BME280;1776;53.330;11.498;2023-04-07T06:28:17;24400.34;;;-147.39;49.95
3524;BME280;1776;53.330;11.498;2023-04-07T06:30:43;24426.78;;;-147.39;48.34
3524;BME280;1776;53.330;11.498;2023-04-07T06:33:08;24428.81;;;-147.39;48.14
3524;BME280;1776;53.330;11.498;2023-04-07T06:35:33;24434.91;;;-147.39;48.26
3524;BME280;1776;53.330;11.498;2023-04-07T06:37:58;24436.94;;;-147.39;47.99
3524;BME280;1776;53.330;11.498;2023-04-07T06:40:24;24443.03;;;-147.39;48.83
3524;BME280;1776;53.330;11.498;2023-04-07T06:42:49;24426.78;;;-147.39;47.89
3524;BME280;1776;53.330;11.498;2023-04-07T06:45:15;24471.50;;;-147.39;47.72
3524;BME280;1776;53.330;11.498;2023-04-07T06:47:40;24504.06;;;-147.39;47.45
3524;BME280;1776;53.330;11.498;2023-04-07T06:50:06;24477.63;;;-147.39;47.32
3524;BME280;1776;53.330;11.498;2023-04-07T06:52:32;24489.81;;;-147.39;46.90
3524;BME280;1776;53.330;11.498;2023-04-07T06:54:57;24483.72;;;-147.39;46.64
3524;BME280;1776;53.330;11.498;2023-04-07T06:57:23;24495.91;;;-147.39;47.01
3524;BME280;1776;53.330;11.498;2023-04-07T06:59:48;24520.31;;;-147.39;48.07
3524;BME280;1776;53.330;11.498;2023-04-07T07:02:14;24502.00;;;-147.39;46.76
3524;BME280;1776;53.330;11.498;2023-04-07T07:04:39;24589.47;;;-147.39;46.89
3524;BME280;1776;53.330;11.498;2023-04-07T07:07:04;24538.63;;;-147.39;46.48
3524;BME280;1776;53.330;11.498;2023-04-07T07:09:30;24613.84;;;-147.39;45.88
3524;BME280;1776;53.330;11.498;2023-04-07T07:11:55;24573.19;;;-147.39;46.23
3524;BME280;1776;53.330;11.498;2023-04-07T07:14:21;24569.13;;;-147.39;45.68
3524;BME280;1776;53.330;11.498;2023-04-07T07:16:46;24575.22;;;-147.39;45.35
3524;BME280;1776;53.330;11.498;2023-04-07T07:19:12;24603.69;;;-147.39;46.68
3524;BME280;1776;53.330;11.498;2023-04-07T07:21:38;24609.78;;;-147.39;46.15
3524;BME280;1776;53.330;11.498;2023-04-07T07:24:03;24628.09;;;-147.39;45.82
3524;BME280;1776;53.330;11.498;2023-04-07T07:26:29;24646.41;;;-147.39;45.46
3524;BME280;1776;53.330;11.498;2023-04-07T07:28:54;24656.56;;;-147.39;44.87
3524;BME280;1776;53.330;11.498;2023-04-07T07:31:20;24715.53;;;-147.39;44.01
3524;BME280;1776;53.330;11.498;2023-04-07T07:33:45;24701.31;;;-147.39;44.01
3524;BME280;1776;53.330;11.498;2023-04-07T07:36:12;24723.66;;;-147.39;44.01
3524;BME280;1776;53.330;11.498;2023-04-07T07:38:38;24697.22;;;-147.39;43.88
3524;BME280;1776;53.330;11.498;2023-04-07T07:41:05;24668.75;;;-147.39;43.57
3524;BME280;1776;53.330;11.498;2023-04-07T07:43:30;24691.13;;;-147.39;43.59
3524;BME280;1776;53.330;11.498;2023-04-07T07:45:56;24717.56;;;-147.39;43.81
3524;BME280;1776;53.330;11.498;2023-04-07T07:48:21;24748.06;;;-147.39;43.06
3524;BME280;1776;53.330;11.498;2023-04-07T07:50:46;24729.78;;;-147.39;42.71
3524;BME280;1776;53.330;11.498;2023-04-07T07:53:13;24746.03;;;-147.39;42.73
3524;BME280;1776;53.330;11.498;2023-04-07T07:55:38;24796.88;;;-147.39;42.23
3524;BME280;1776;53.330;11.498;2023-04-07T07:58:03;24805.00;;;-147.39;41.87
3524;BME280;1776;53.330;11.498;2023-04-07T08:00:29;24790.78;;;-147.39;41.91
3524;BME280;1776;53.330;11.498;2023-04-07T08:02:54;24796.88;;;-147.39;41.30
3524;BME280;1776;53.330;11.498;2023-04-07T08:05:20;24790.78;;;-147.39;41.03
3524;BME280;1776;53.330;11.498;2023-04-07T08:07:45;24833.50;;;-147.39;41.03
3524;BME280;1776;53.330;11.498;2023-04-07T08:10:11;24802.97;;;-147.39;41.13
3524;BME280;1776;53.330;11.498;2023-04-07T08:12:37;24872.13;;;-147.39;41.44
3524;BME280;1776;53.330;11.498;2023-04-07T08:15:04;24853.81;;;-147.39;41.95
3524;BME280;1776;53.330;11.498;2023-04-07T08:17:29;24823.31;;;-147.39;42.09
3524;BME280;1776;53.330;11.498;2023-04-07T08:19:55;24837.56;;;-147.39;42.47
3524;BME280;1776;53.330;11.498;2023-04-07T08:22:20;24874.16;;;-147.39;42.12
3524;BME280;1776;53.330;11.498;2023-04-07T08:24:45;24864.00;;;-147.39;42.34
3524;BME280;1776;53.330;11.498;2023-04-07T08:27:11;24882.28;;;-147.39;41.89
3524;BME280;1776;53.330;11.498;2023-04-07T08:29:37;24906.69;;;-147.39;41.88
3524;BME280;1776;53.330;11.498;2023-04-07T08:32:02;24868.06;;;-147.39;41.32
3524;BME280;1776;53.330;11.498;2023-04-07T08:34:27;24890.44;;;-147.39;41.22
3524;BME280;1776;53.330;11.498;2023-04-07T08:36:52;24908.72;;;-147.39;40.85
3524;BME280;1776;53.330;11.498;2023-04-07T08:39:18;24910.75;;;-147.39;40.89
3524;BME280;1776;53.330;11.498;2023-04-07T08:41:43;24927.03;;;-147.39;40.38
3524;BME280;1776;53.330;11.498;2023-04-07T08:44:10;24922.97;;;-147.39;40.12
3524;BME280;1776;53.330;11.498;2023-04-07T08:46:37;24996.19;;;-147.39;39.67
3524;BME280;1776;53.330;11.498;2023-04-07T08:49:07;24935.16;;;-147.39;39.73
3524;BME280;1776;53.330;11.498;2023-04-07T08:51:34;25004.31;;;-147.39;39.60
3524;BME280;1776;53.330;11.498;2023-04-07T08:54:08;24977.88;;;-147.39;39.31
3524;BME280;1776;53.330;11.498;2023-04-07T08:56:37;25040.94;;;-147.39;38.64
3524;BME280;1776;53.330;11.498;2023-04-07T08:59:04;25020.59;;;-147.39;38.29
3524;BME280;1776;53.330;11.498;2023-04-07T09:01:30;25045.00;;;-147.39;37.90
3524;BME280;1776;53.330;11.498;2023-04-07T09:03:56;25077.53;;;-147.39;38.29
3524;BME280;1776;53.330;11.498;2023-04-07T09:06:23;25071.44;;;-147.39;37.53
3524;BME280;1776;53.330;11.498;2023-04-07T09:08:48;25089.72;;;-147.39;37.73
3524;BME280;1776;53.330;11.498;2023-04-07T09:11:13;25101.94;;;-147.39;37.43
3524;BME280;1776;53.330;11.498;2023-04-07T09:13:38;25146.69;;;-147.39;36.45
3524;BME280;1776;53.330;11.498;2023-04-07T09:16:04;25177.19;;;-147.39;35.90
3524;BME280;1776;53.330;11.498;2023-04-07T09:18:30;25230.06;;;-147.39;35.69
3524;BME280;1776;53.330;11.498;2023-04-07T09:20:57;25236.16;;;-147.39;35.14
3524;BME280;1776;53.330;11.498;2023-04-07T09:23:33;25252.44;;;-147.39;35.73
3524;BME280;1776;53.330;11.498;2023-04-07T09:28:43;25311.44;;;-147.39;35.64
3524;BME280;1776;53.330;11.498;2023-04-07T09:31:09;25376.50;;;-147.39;35.66
3524;BME280;1776;53.330;11.498;2023-04-07T09:33:34;25364.31;;;-147.39;35.80
3524;BME280;1776;53.330;11.498;2023-04-07T09:36:04;25435.50;;;-147.39;35.55
3524;BME280;1776;53.330;11.498;2023-04-07T09:38:37;25404.97;;;-147.39;35.65
3524;BME280;1776;53.330;11.498;2023-04-07T09:41:14;25512.78;;;-147.39;35.88
3524;BME280;1776;53.330;11.498;2023-04-07T09:43:44;25543.28;;;-147.39;35.12
3524;BME280;1776;53.330;11.498;2023-04-07T09:46:15;25632.78;;;-147.39;34.42
3524;BME280;1776;53.330;11.498;2023-04-07T09:48:44;25557.53;;;-147.39;33.81
3524;BME280;1776;53.330;11.498;2023-04-07T09:51:12;25610.41;;;-147.39;34.29
3524;BME280;1776;53.330;11.498;2023-04-07T09:53:43;25614.50;;;-147.39;34.14
3524;BME280;1776;53.330;11.498;2023-04-07T09:56:09;25612.44;;;-147.39;34.75
3524;BME280;1776;53.330;11.498;2023-04-07T09:58:37;25626.69;;;-147.39;34.09
3524;BME280;1776;53.330;11.498;2023-04-07T10:01:04;25590.06;;;-147.39;34.24
3524;BME280;1776;53.330;11.498;2023-04-07T10:03:30;25549.41;;;-147.39;35.16
3524;BME280;1776;53.330;11.498;2023-04-07T10:05:59;25404.97;;;-147.39;35.32
3524;BME280;1776;53.330;11.498;2023-04-07T10:08:25;25529.06;;;-147.39;35.77
3524;BME280;1776;53.330;11.498;2023-04-07T10:10:51;25520.91;;;-147.39;35.86
3524;BME280;1776;53.330;11.498;2023-04-07T10:13:18;25539.22;;;-147.39;35.86
3524;BME280;1776;53.330;11.498;2023-04-07T10:15:44;25480.25;;;-147.39;36.48
3524;BME280;1776;53.330;11.498;2023-04-07T10:18:09;25480.25;;;-147.39;36.42
3524;BME280;1776;53.330;11.498;2023-04-07T10:20:38;25492.44;;;-147.39;36.34
3524;BME280;1776;53.330;11.498;2023-04-07T10:25:55;25453.81;;;-147.39;36.65
3524;BME280;1776;53.330;11.498;2023-04-07T10:28:23;25453.81;;;-147.39;36.89
3524;BME280;1776;53.330;11.498;2023-04-07T10:30:50;25506.69;;;-147.39;37.27
3524;BME280;1776;53.330;11.498;2023-04-07T10:33:16;25445.66;;;-147.39;37.06
3524;BME280;1776;53.330;11.498;2023-04-07T10:36:02;25457.88;;;-147.39;36.77
3524;BME280;1776;53.330;11.498;2023-04-07T10:38:27;25449.72;;;-147.39;36.90
3524;BME280;1776;53.330;11.498;2023-04-07T10:40:53;25453.81;;;-147.39;36.74
3524;BME280;1776;53.330;11.498;2023-04-07T10:43:38;25453.81;;;-147.39;35.92
3524;BME280;1776;53.330;11.498;2023-04-07T10:46:05;25437.53;;;-147.39;36.90
3524;BME280;1776;53.330;11.498;2023-04-07T10:48:30;25466.00;;;-147.39;37.36
3524;BME280;1776;53.330;11.498;2023-04-07T10:51:11;25476.16;;;-147.39;36.99
3524;BME280;1776;53.330;11.498;2023-04-07T10:54:14;25512.78;;;-147.39;36.20
3524;BME280;1776;53.330;11.498;2023-04-07T10:59:31;25559.56;;;-147.39;35.99
3524;BME280;1776;53.330;11.498;2023-04-07T11:04:45;25510.75;;;-147.39;36.73
3524;BME280;1776;53.330;11.498;2023-04-07T11:07:12;25506.69;;;-147.39;36.87
3524;BME280;1776;53.330;11.498;2023-04-07T11:09:37;25502.63;;;-147.39;36.91
3524;BME280;1776;53.330;11.498;2023-04-07T11:12:03;25539.22;;;-147.39;36.34
3524;BME280;1776;53.330;11.498;2023-04-07T11:14:30;25484.31;;;-147.39;35.92
3524;BME280;1776;53.330;11.498;2023-04-07T11:16:56;25472.09;;;-147.39;36.42
3524;BME280;1776;53.330;11.498;2023-04-07T11:19:22;25518.88;;;-147.39;37.04
3524;BME280;1776;53.330;11.498;2023-04-07T11:21:47;25504.66;;;-147.39;36.95
3524;BME280;1776;53.330;11.498;2023-04-07T11:24:36;25476.16;;;-147.39;36.64
3524;BME280;1776;53.330;11.498;2023-04-07T11:27:02;25486.34;;;-147.39;37.14
3524;BME280;1776;53.330;11.498;2023-04-07T11:29:28;25445.66;;;-147.39;37.36
3524;BME280;1776;53.330;11.498;2023-04-07T11:31:56;25459.91;;;-147.39;37.99
3524;BME280;1776;53.330;11.498;2023-04-07T11:34:28;25470.06;;;-147.39;37.91
3524;BME280;1776;53.330;11.498;2023-04-07T11:36:53;25472.09;;;-147.39;37.63
3524;BME280;1776;53.330;11.498;2023-04-07T11:39:23;25466.00;;;-147.39;37.34
3524;BME280;1776;53.330;11.498;2023-04-07T11:41:52;25451.75;;;-147.39;37.32
3524;BME280;1776;53.330;11.498;2023-04-07T11:44:17;25417.19;;;-147.39;37.10
3524;BME280;1776;53.330;11.498;2023-04-07T11:46:53;25409.06;;;-147.39;37.49
3524;BME280;1776;53.330;11.498;2023-04-07T11:49:19;25378.53;;;-147.39;38.54
3524;BME280;1776;53.330;11.498;2023-04-07T11:51:44;25362.28;;;-147.39;38.05
3524;BME280;1776;53.330;11.498;2023-04-07T11:54:11;25394.81;;;-147.39;38.88
3524;BME280;1776;53.330;11.498;2023-04-07T11:56:45;25339.91;;;-147.39;38.87
3524;BME280;1776;53.330;11.498;2023-04-07T11:59:22;25358.19;;;-147.39;39.48
3524;BME280;1776;53.330;11.498;2023-04-07T12:01:48;25388.72;;;-147.39;39.94
3524;BME280;1776;53.330;11.498;2023-04-07T12:04:14;25384.66;;;-147.39;39.71
3524;BME280;1776;53.330;11.498;2023-04-07T12:06:41;25356.16;;;-147.39;39.70
3524;BME280;1776;53.330;11.498;2023-04-07T12:09:23;25362.28;;;-147.39;40.20
3524;BME280;1776;53.330;11.498;2023-04-07T12:11:50;25404.97;;;-147.39;40.56
3524;BME280;1776;53.330;11.498;2023-04-07T12:14:15;25376.50;;;-147.39;40.35
3524;BME280;1776;53.330;11.498;2023-04-07T12:16:40;25341.94;;;-147.39;40.65
3524;BME280;1776;53.330;11.498;2023-04-07T12:19:06;25378.53;;;-147.39;40.52
3524;BME280;1776;53.330;11.498;2023-04-07T12:21:32;25337.88;;;-147.39;40.36
3524;BME280;1776;53.330;11.498;2023-04-07T12:23:57;25390.75;;;-147.39;40.41
3524;BME280;1776;53.330;11.498;2023-04-07T12:26:22;25384.66;;;-147.39;40.49
3524;BME280;1776;53.330;11.498;2023-04-07T12:28:49;25390.75;;;-147.39;40.73
3524;BME280;1776;53.330;11.498;2023-04-07T12:31:14;25356.16;;;-147.39;41.07
3524;BME280;1776;53.330;11.498;2023-04-07T12:33:40;25341.94;;;-147.39;41.23
3524;BME280;1776;53.330;11.498;2023-04-07T12:36:05;25378.53;;;-147.39;41.56
3524;BME280;1776;53.330;11.498;2023-04-07T12:38:31;25346.00;;;-147.39;41.89
3524;BME280;1776;53.330;11.498;2023-04-07T12:40:56;25333.78;;;-147.39;42.69
3524;BME280;1776;53.330;11.498;2023-04-07T12:43:27;25348.03;;;-147.39;42.80
3524;BME280;1776;53.330;11.498;2023-04-07T12:45:53;25291.09;;;-147.39;43.27
3524;BME280;1776;53.330;11.498;2023-04-07T12:48:18;25315.50;;;-147.39;43.47
3524;BME280;1776;53.330;11.498;2023-04-07T12:50:43;25311.44;;;-147.39;44.01
3524;BME280;1776;53.330;11.498;2023-04-07T12:53:08;25268.72;;;-147.39;44.35
3524;BME280;1776;53.330;11.498;2023-04-07T12:55:34;25264.66;;;-147.39;44.78
3524;BME280;1776;53.330;11.498;2023-04-07T12:57:59;25323.63;;;-147.39;44.49
3524;BME280;1776;53.330;11.498;2023-04-07T13:00:25;25256.50;;;-147.39;45.05
3524;BME280;1776;53.330;11.498;2023-04-07T13:02:50;25234.13;;;-147.39;45.95